Time;durP1;ratioP1;P1;durP2;ratioP2;P2;SDS_P1;SDS_P2;PMS_P1;PMS_P2;Temp;Humidity;BMP_temperature;BMP_pressure;BME280_temperature;BME280_humidity;BME280_pressure;Samples;Min_cycle;Max_cycle;Signal;HPM_P1;HPM_P2
2021/08/18 00:01:31;;;;;;;9.57;6.07;;;15.70;99.90;;;;;;2603430;46;20832;31
2021/08/18 00:04:03;;;;;;;11.27;5.20;;;15.70;99.90;;;;;;2603771;46;20038;31
2021/08/18 00:06:33;;;;;;;8.65;5.55;;;15.70;99.90;;;;;;2608931;39;20414;31
2021/08/18 00:09:04;;;;;;;8.23;5.32;;;15.70;99.90;;;;;;2603389;54;20087;31
2021/08/18 00:11:35;;;;;;;9.03;5.43;;;15.70;99.90;;;;;;2603527;46;20922;31
2021/08/18 00:14:06;;;;;;;9.05;5.95;;;15.70;99.90;;;;;;2603702;46;20035;31
2021/08/18 00:16:37;;;;;;;10.60;6.50;;;15.70;99.90;;;;;;2603510;46;20058;31
2021/08/18 00:19:08;;;;;;;9.15;5.60;;;15.70;99.90;;;;;;2603563;46;20896;31
2021/08/18 00:21:40;;;;;;;8.90;5.60;;;15.70;99.90;;;;;;2603551;46;20763;31
2021/08/18 00:24:11;;;;;;;14.38;6.18;;;15.70;99.90;;;;;;2603120;46;20687;31
2021/08/18 00:26:42;;;;;;;9.25;5.57;;;15.70;99.90;;;;;;2603360;47;20039;31
2021/08/18 00:29:13;;;;;;;10.65;5.82;;;15.80;99.90;;;;;;2603045;46;19942;31
2021/08/18 00:31:44;;;;;;;10.60;6.00;;;15.80;99.90;;;;;;2603427;46;20050;31
2021/08/18 00:34:15;;;;;;;10.85;6.00;;;15.80;99.90;;;;;;2773398;31;20393;31
2021/08/18 00:36:47;;;;;;;9.87;5.90;;;15.80;99.90;;;;;;2603625;46;20090;31
2021/08/18 00:39:17;;;;;;;10.17;6.30;;;15.80;99.90;;;;;;2701186;39;20554;31
2021/08/18 00:41:48;;;;;;;12.55;6.50;;;15.80;99.90;;;;;;2603483;46;20873;31
2021/08/18 00:44:19;;;;;;;8.40;5.90;;;15.80;99.90;;;;;;2603429;46;20090;31
2021/08/18 00:46:52;;;;;;;10.05;6.15;;;15.80;99.90;;;;;;2603098;54;20038;31
2021/08/18 00:49:22;;;;;;;12.60;7.00;;;15.80;99.90;;;;;;2649666;39;20359;31
2021/08/18 00:51:54;;;;;;;11.25;6.80;;;15.90;99.90;;;;;;2603442;47;20109;31
2021/08/18 00:54:24;;;;;;;9.47;6.37;;;15.80;99.90;;;;;;2603104;54;20870;31
2021/08/18 00:56:55;;;;;;;11.15;5.95;;;15.80;99.90;;;;;;2603389;46;20031;31
2021/08/18 00:59:26;;;;;;;10.95;6.13;;;15.80;99.90;;;;;;2603433;46;20050;31
2021/08/18 01:01:58;;;;;;;9.73;5.85;;;15.80;99.90;;;;;;2603519;46;20892;31
2021/08/18 01:04:29;;;;;;;9.73;6.88;;;15.80;99.90;;;;;;2603183;47;20029;31
2021/08/18 01:07:00;;;;;;;11.85;7.00;;;15.80;99.90;;;;;;2603390;47;20917;31
2021/08/18 01:09:31;;;;;;;8.70;6.30;;;15.80;99.90;;;;;;2603292;47;20026;31
2021/08/18 01:12:02;;;;;;;9.15;6.30;;;15.80;99.90;;;;;;2603386;46;20026;31
2021/08/18 01:14:33;;;;;;;8.85;5.80;;;15.80;99.90;;;;;;2603068;54;20050;31
2021/08/18 01:17:04;;;;;;;10.48;6.82;;;15.80;99.90;;;;;;2602943;54;20431;31
2021/08/18 01:19:35;;;;;;;12.60;7.35;;;15.80;99.90;;;;;;2603419;47;20889;31
2021/08/18 01:22:06;;;;;;;11.05;6.03;;;15.80;99.90;;;;;;2603150;47;20898;31
2021/08/18 01:24:37;;;;;;;14.63;7.20;;;15.80;99.90;;;;;;2603423;47;20036;31
2021/08/18 01:27:08;;;;;;;11.93;6.68;;;15.80;99.90;;;;;;2603070;47;20943;31
2021/08/18 01:29:39;;;;;;;10.45;6.80;;;15.80;99.90;;;;;;2603239;47;20038;31
2021/08/18 01:32:10;;;;;;;12.33;6.87;;;15.80;99.90;;;;;;2603045;47;20775;31
2021/08/18 01:34:41;;;;;;;11.30;6.50;;;15.70;99.90;;;;;;2603093;54;20638;31
2021/08/18 01:37:12;;;;;;;11.50;7.00;;;15.70;99.90;;;;;;2603561;47;20434;31
2021/08/18 01:39:43;;;;;;;9.90;6.25;;;15.70;99.90;;;;;;2603962;46;20752;31
2021/08/18 01:42:14;;;;;;;11.13;7.40;;;15.60;99.90;;;;;;2604002;46;20250;31
2021/08/18 01:44:45;;;;;;;10.40;6.70;;;15.70;99.90;;;;;;2603757;54;20334;31
2021/08/18 01:47:16;;;;;;;11.15;7.10;;;15.60;99.90;;;;;;2604128;46;20027;31
2021/08/18 01:49:47;;;;;;;12.48;7.18;;;15.60;99.90;;;;;;2603823;46;20039;31
2021/08/18 01:52:18;;;;;;;10.23;6.55;;;15.60;99.90;;;;;;2604077;46;20090;31
2021/08/18 01:54:55;;;;;;;12.07;7.35;;;15.60;99.90;;;;;;2604150;46;20022;31
2021/08/18 01:57:26;;;;;;;12.35;7.15;;;15.60;99.90;;;;;;2603987;46;20043;31
2021/08/18 01:59:57;;;;;;;11.43;7.10;;;15.60;99.90;;;;;;2702560;39;20375;31
2021/08/18 02:02:29;;;;;;;14.95;7.88;;;15.60;99.90;;;;;;2603750;46;20031;31
2021/08/18 02:04:59;;;;;;;10.38;7.28;;;15.60;99.90;;;;;;2603970;46;20086;31
2021/08/18 02:07:30;;;;;;;11.40;6.73;;;15.60;99.90;;;;;;2604016;46;20057;31
2021/08/18 02:10:03;;;;;;;10.70;6.78;;;15.50;99.90;;;;;;2603752;46;20843;31
2021/08/18 02:12:36;;;;;;;8.48;5.97;;;15.50;99.90;;;;;;2691278;39;20387;31
2021/08/18 02:15:26;;;;;;;9.20;6.35;;;15.60;99.90;;;;;;2603726;54;20086;31
2021/08/18 02:17:58;;;;;;;9.38;6.13;;;15.60;99.90;;;;;;2603721;46;20061;31
2021/08/18 02:20:31;;;;;;;10.90;6.13;;;15.50;99.90;;;;;;2603829;46;20866;31
2021/08/18 02:23:03;;;;;;;8.45;5.82;;;15.50;99.90;;;;;;2603871;46;20027;31
2021/08/18 02:25:34;;;;;;;10.70;5.80;;;15.40;99.90;;;;;;2603528;54;20429;31
2021/08/18 02:28:05;;;;;;;8.30;5.25;;;15.40;99.90;;;;;;2629704;39;20414;31
2021/08/18 02:30:36;;;;;;;11.00;6.15;;;15.40;99.90;;;;;;2603601;54;20027;31
2021/08/18 02:33:06;;;;;;;8.75;5.75;;;15.30;99.90;;;;;;2603845;46;20090;31
2021/08/18 02:35:37;;;;;;;8.95;5.40;;;15.30;99.90;;;;;;2603642;46;20031;31
2021/08/18 02:38:09;;;;;;;8.70;5.50;;;15.30;99.90;;;;;;2603779;46;20062;31
2021/08/18 02:40:39;;;;;;;10.63;6.47;;;15.20;99.90;;;;;;2603857;46;20036;31
2021/08/18 02:43:10;;;;;;;7.97;5.13;;;15.20;99.90;;;;;;2603490;54;20026;31
2021/08/18 02:45:41;;;;;;;7.22;4.95;;;15.20;99.90;;;;;;2603935;46;19961;31
2021/08/18 02:48:12;;;;;;;8.68;5.32;;;15.10;99.90;;;;;;2603629;46;20046;31
2021/08/18 02:50:43;;;;;;;7.85;5.13;;;15.20;99.90;;;;;;2603796;46;20037;31
2021/08/18 02:53:14;;;;;;;9.23;5.85;;;15.10;99.90;;;;;;2603688;46;20932;31
2021/08/18 02:55:45;;;;;;;7.95;4.95;;;15.10;99.90;;;;;;2604002;46;20946;31
2021/08/18 02:58:17;;;;;;;6.78;4.97;;;15.10;99.90;;;;;;2603811;46;20022;31
2021/08/18 03:00:49;;;;;;;10.50;5.78;;;15.00;99.90;;;;;;2603546;47;20926;31
2021/08/18 03:03:20;;;;;;;10.40;6.37;;;15.00;99.90;;;;;;2719204;31;20496;31
2021/08/18 03:05:51;;;;;;;8.80;5.68;;;14.90;99.90;;;;;;2633964;39;20931;31
2021/08/18 03:08:22;;;;;;;8.32;5.60;;;14.90;99.90;;;;;;2603756;46;20034;31
2021/08/18 03:10:53;;;;;;;7.35;5.25;;;14.90;99.90;;;;;;2603734;46;20843;31
2021/08/18 03:13:24;;;;;;;11.77;6.07;;;14.90;99.90;;;;;;2603671;46;20097;31
2021/08/18 03:15:55;;;;;;;9.32;5.93;;;14.80;99.90;;;;;;2603802;46;20027;31
2021/08/18 03:18:27;;;;;;;9.77;5.72;;;14.80;99.90;;;;;;2603802;46;20026;31
2021/08/18 03:20:58;;;;;;;8.27;4.50;;;14.80;99.90;;;;;;2603676;46;20034;31
2021/08/18 03:23:29;;;;;;;9.80;5.60;;;14.70;99.90;;;;;;2603414;46;20022;31
2021/08/18 03:26:00;;;;;;;9.55;5.45;;;14.70;99.90;;;;;;2603842;46;20030;31
2021/08/18 03:28:31;;;;;;;9.95;5.95;;;14.60;99.90;;;;;;2603728;46;20100;31
2021/08/18 03:31:02;;;;;;;10.43;6.15;;;14.60;99.90;;;;;;2603854;46;20022;31
2021/08/18 03:33:33;;;;;;;8.98;5.40;;;14.50;99.90;;;;;;2603827;46;20034;31
2021/08/18 03:36:04;;;;;;;9.05;5.60;;;14.50;99.90;;;;;;2603595;46;20853;31
2021/08/18 03:38:35;;;;;;;12.68;6.00;;;14.50;99.90;;;;;;2603481;46;20114;31
2021/08/18 03:41:06;;;;;;;8.95;5.95;;;14.40;99.90;;;;;;2659993;39;20463;31
2021/08/18 03:43:37;;;;;;;10.30;5.57;;;14.40;99.90;;;;;;2603662;46;20113;31
2021/08/18 03:46:09;;;;;;;9.52;6.10;;;14.40;99.90;;;;;;2603755;46;20114;31
2021/08/18 03:48:40;;;;;;;8.80;5.72;;;14.30;99.90;;;;;;2603880;46;20750;31
2021/08/18 03:51:11;;;;;;;14.00;5.50;;;14.30;99.90;;;;;;2603709;46;20038;31
2021/08/18 03:53:42;;;;;;;8.55;5.20;;;14.30;99.90;;;;;;2603762;46;20115;31
2021/08/18 03:56:13;;;;;;;11.27;5.88;;;14.20;99.90;;;;;;2603865;46;20027;31
2021/08/18 03:58:44;;;;;;;10.07;5.37;;;14.20;99.90;;;;;;2603634;46;20030;31
2021/08/18 04:04:05;;;;;;;7.63;5.10;;;14.20;99.90;;;;;;2646539;53;21237;31
2021/08/18 04:06:35;;;;;;;11.30;6.32;;;14.20;99.90;;;;;;2607435;54;20167;31
2021/08/18 04:09:06;;;;;;;9.20;5.47;;;14.20;99.90;;;;;;2607908;46;20932;31
2021/08/18 04:11:37;;;;;;;10.60;6.60;;;14.10;99.90;;;;;;2607472;54;20451;31
2021/08/18 04:14:10;;;;;;;10.80;6.00;;;14.10;99.90;;;;;;2607933;46;20049;31
2021/08/18 04:16:42;;;;;;;8.23;5.67;;;14.10;99.90;;;;;;2607644;46;20756;31
2021/08/18 04:19:13;;;;;;;10.13;5.97;;;14.00;99.90;;;;;;2607913;46;21226;31
2021/08/18 04:21:44;;;;;;;8.90;6.10;;;14.00;99.90;;;;;;2607922;46;20029;31
2021/08/18 04:24:15;;;;;;;8.95;5.13;;;14.10;99.90;;;;;;2622676;38;20335;31
2021/08/18 04:26:46;;;;;;;8.50;5.50;;;14.20;99.90;;;;;;2607681;46;20109;31
2021/08/18 04:29:18;;;;;;;9.15;5.60;;;14.20;99.90;;;;;;2643979;38;20566;31
2021/08/18 04:31:49;;;;;;;9.50;5.72;;;14.30;99.90;;;;;;2607784;46;20921;31
2021/08/18 04:34:20;;;;;;;9.10;5.77;;;14.30;99.90;;;;;;2607787;46;20895;31
2021/08/18 04:36:51;;;;;;;10.55;6.30;;;14.40;99.90;;;;;;2607694;46;20936;31
2021/08/18 04:39:22;;;;;;;10.40;5.93;;;14.40;99.90;;;;;;2607928;46;20081;31
2021/08/18 04:41:53;;;;;;;10.52;6.30;;;14.50;99.90;;;;;;2607325;54;20062;31
2021/08/18 04:44:24;;;;;;;12.48;5.18;;;14.70;99.90;;;;;;2607401;54;20026;31
2021/08/18 04:46:55;;;;;;;8.85;5.93;;;14.70;99.90;;;;;;2607853;46;20026;31
2021/08/18 04:49:26;;;;;;;7.32;4.55;;;14.90;99.90;;;;;;2607746;46;20030;31
2021/08/18 04:51:57;;;;;;;8.52;5.50;;;15.00;99.90;;;;;;2607370;54;20105;31
2021/08/18 04:54:28;;;;;;;10.98;5.30;;;15.20;99.90;;;;;;2607685;46;20912;31
2021/08/18 04:57:00;;;;;;;10.80;5.70;;;15.30;99.90;;;;;;2607319;54;20864;31
2021/08/18 04:59:31;;;;;;;9.55;5.55;;;15.50;99.90;;;;;;2607712;46;20038;31
2021/08/18 05:02:01;;;;;;;9.43;5.78;;;15.70;99.90;;;;;;2607628;46;20077;31
2021/08/18 05:04:32;;;;;;;10.98;5.25;;;15.90;99.90;;;;;;2607645;46;20903;31
2021/08/18 05:07:03;;;;;;;8.80;5.70;;;16.10;99.90;;;;;;2607357;54;20879;31
2021/08/18 05:09:34;;;;;;;12.40;5.50;;;16.30;99.90;;;;;;2607801;46;20030;31
2021/08/18 05:12:05;;;;;;;10.45;5.80;;;16.50;99.90;;;;;;2607663;46;20911;31
2021/08/18 05:14:36;;;;;;;8.95;5.85;;;16.70;99.90;;;;;;2605079;46;20046;31
2021/08/18 05:17:07;;;;;;;8.60;5.40;;;16.80;99.90;;;;;;2604082;46;20027;31
2021/08/18 05:19:38;;;;;;;10.25;5.10;;;16.90;99.90;;;;;;2603882;46;20068;31
2021/08/18 05:22:10;;;;;;;10.85;5.85;;;17.10;99.90;;;;;;2603829;46;20022;31
2021/08/18 05:24:41;;;;;;;9.53;5.10;;;17.20;99.90;;;;;;2604004;46;20053;31
2021/08/18 05:27:13;;;;;;;7.70;4.93;;;17.30;99.90;;;;;;2603977;46;20403;31
2021/08/18 05:29:43;;;;;;;10.30;5.27;;;17.50;99.90;;;;;;2603609;54;20085;31
2021/08/18 05:32:14;;;;;;;10.00;5.68;;;17.70;99.90;;;;;;2603595;54;20097;31
2021/08/18 05:34:45;;;;;;;8.90;5.35;;;17.70;99.90;;;;;;2603911;46;20030;31
2021/08/18 05:37:16;;;;;;;8.87;5.10;;;17.70;99.90;;;;;;2603524;54;20026;31
2021/08/18 05:39:47;;;;;;;8.35;5.30;;;17.80;99.90;;;;;;2603921;46;20031;31
2021/08/18 05:42:18;;;;;;;9.00;5.17;;;18.00;99.90;;;;;;2619408;39;21240;31
2021/08/18 05:44:49;;;;;;;6.88;4.43;;;18.10;99.90;;;;;;2603623;46;20366;31
2021/08/18 05:47:21;;;;;;;9.02;5.30;;;18.20;99.90;;;;;;2603550;54;20858;31
2021/08/18 05:49:52;;;;;;;6.60;4.25;;;18.20;99.90;;;;;;2603873;46;20037;31
2021/08/18 05:52:23;;;;;;;8.98;4.90;;;18.20;99.90;;;;;;2603686;46;20847;31
2021/08/18 05:54:55;;;;;;;6.93;4.32;;;18.30;99.90;;;;;;2603990;46;20026;31
2021/08/18 05:57:26;;;;;;;8.32;4.90;;;18.30;99.90;;;;;;2603910;46;20052;31
2021/08/18 05:59:57;;;;;;;7.05;4.63;;;18.50;99.90;;;;;;2603689;46;20061;31
2021/08/18 06:02:28;;;;;;;6.20;4.20;;;18.60;99.90;;;;;;2603787;46;20030;31
2021/08/18 06:04:59;;;;;;;9.10;4.95;;;18.80;99.90;;;;;;2702248;39;22502;31
2021/08/18 06:07:30;;;;;;;8.07;4.72;;;19.00;99.90;;;;;;2603758;46;20901;31
2021/08/18 06:10:01;;;;;;;9.40;5.15;;;19.10;99.90;;;;;;2603352;54;20042;31
2021/08/18 06:12:32;;;;;;;6.90;4.50;;;19.30;99.90;;;;;;2603529;54;20022;31
2021/08/18 06:15:03;;;;;;;7.13;4.13;;;19.50;99.90;;;;;;2603481;54;20900;31
2021/08/18 06:17:34;;;;;;;6.80;4.10;;;19.60;99.90;;;;;;2603727;46;20794;31
2021/08/18 06:20:09;;;;;;;6.00;4.05;;;19.80;99.90;;;;;;2603494;54;20045;31
2021/08/18 06:22:40;;;;;;;4.75;3.58;;;19.90;99.90;;;;;;2603723;46;20026;31
2021/08/18 06:25:11;;;;;;;6.82;4.45;;;20.00;99.90;;;;;;2603724;46;20050;31
2021/08/18 06:27:42;;;;;;;5.63;3.53;;;20.20;99.90;;;;;;2603501;47;20035;31
2021/08/18 06:30:13;;;;;;;6.85;3.75;;;20.30;99.90;;;;;;2603913;46;20899;31
2021/08/18 06:32:44;;;;;;;6.10;3.80;;;20.50;99.90;;;;;;2603537;46;20034;31
2021/08/18 06:35:15;;;;;;;7.25;4.15;;;20.60;99.90;;;;;;2702157;39;20342;31
2021/08/18 06:37:46;;;;;;;8.68;4.20;;;20.70;99.90;;;;;;2603676;46;20065;31
2021/08/18 06:40:17;;;;;;;7.25;3.80;;;20.80;99.90;;;;;;2603646;46;20933;31
2021/08/18 06:42:48;;;;;;;5.88;3.60;;;20.90;99.90;;;;;;2603592;46;20089;31
2021/08/18 06:45:19;;;;;;;6.68;4.10;;;20.80;99.90;;;;;;2603364;46;20026;31
2021/08/18 06:47:50;;;;;;;5.75;3.42;;;21.10;99.90;;;;;;2603677;46;20895;31
2021/08/18 06:50:22;;;;;;;6.22;4.40;;;21.10;99.90;;;;;;2603287;54;20050;31
2021/08/18 06:52:53;;;;;;;7.78;3.47;;;21.30;99.90;;;;;;2603615;46;20038;31
2021/08/18 06:55:25;;;;;;;6.18;3.50;;;21.40;99.90;;;;;;2603625;46;20881;31
2021/08/18 06:57:56;;;;;;;6.55;3.80;;;21.50;99.90;;;;;;2603475;46;20042;31
2021/08/18 07:00:27;;;;;;;7.33;3.43;;;21.50;99.90;;;;;;2603641;46;20027;31
2021/08/18 07:02:58;;;;;;;7.47;3.63;;;21.80;99.90;;;;;;2603306;54;20085;31
2021/08/18 07:05:34;;;;;;;7.10;3.75;;;21.90;99.90;;;;;;2603391;54;20922;31
2021/08/18 07:08:06;;;;;;;5.50;3.33;;;21.90;99.90;;;;;;2603750;46;20833;31
2021/08/18 07:10:37;;;;;;;7.40;3.47;;;22.10;99.90;;;;;;2603343;54;20455;31
2021/08/18 07:13:08;;;;;;;8.40;3.90;;;22.10;99.90;;;;;;2603442;46;20491;31
2021/08/18 07:15:39;;;;;;;7.78;3.55;;;22.30;99.90;;;;;;2603741;46;21006;31
2021/08/18 07:18:10;;;;;;;5.78;3.50;;;22.40;99.90;;;;;;2603534;46;20082;31
2021/08/18 07:20:41;;;;;;;10.50;3.55;;;22.50;99.90;;;;;;2603745;46;20030;31
2021/08/18 07:23:12;;;;;;;5.57;3.75;;;22.50;99.90;;;;;;2603444;46;20949;31
2021/08/18 07:25:43;;;;;;;5.03;3.42;;;22.80;99.90;;;;;;2603454;46;20901;31
2021/08/18 07:28:14;;;;;;;5.53;3.20;;;22.90;99.90;;;;;;2603378;47;20026;31
2021/08/18 07:30:45;;;;;;;4.25;3.10;;;23.00;99.90;;;;;;2603618;46;20940;31
2021/08/18 07:33:16;;;;;;;5.43;3.40;;;23.10;99.90;;;;;;2603504;46;20941;31
2021/08/18 07:35:47;;;;;;;6.85;3.40;;;23.30;99.90;;;;;;2603438;47;20034;31
2021/08/18 07:38:18;;;;;;;5.30;3.10;;;23.30;99.90;;;;;;2603454;46;20961;31
2021/08/18 07:40:49;;;;;;;4.68;3.05;;;23.20;99.90;;;;;;2603396;47;20907;31
2021/08/18 07:43:20;;;;;;;9.80;3.75;;;23.10;99.90;;;;;;2603234;54;20892;31
2021/08/18 07:45:51;;;;;;;7.00;3.15;;;23.40;99.90;;;;;;2603385;46;20822;31
2021/08/18 07:48:22;;;;;;;7.03;3.50;;;23.40;99.80;;;;;;2603410;46;20031;31
2021/08/18 07:50:53;;;;;;;4.63;2.85;;;23.70;99.90;;;;;;2603327;46;20027;31
2021/08/18 07:53:25;;;;;;;5.40;3.15;;;23.60;99.60;;;;;;2603341;47;20089;31
2021/08/18 07:55:56;;;;;;;6.47;2.80;;;23.20;99.30;;;;;;2771372;31;25052;31
2021/08/18 07:58:28;;;;;;;6.97;2.70;;;22.70;99.90;;;;;;2603231;47;20022;31
2021/08/18 08:00:59;;;;;;;4.90;2.97;;;22.40;99.90;;;;;;2629359;39;20269;31
2021/08/18 08:03:33;;;;;;;5.20;3.00;;;22.30;99.90;;;;;;2603373;47;20022;31
2021/08/18 08:06:06;;;;;;;5.35;2.70;;;22.40;99.90;;;;;;2603445;47;20046;31
2021/08/18 08:08:37;;;;;;;9.95;3.15;;;22.30;99.90;;;;;;2603197;47;25133;31
2021/08/18 08:11:08;;;;;;;5.05;2.90;;;22.30;99.90;;;;;;2603518;47;20890;31
2021/08/18 08:13:39;;;;;;;5.50;2.90;;;22.10;99.90;;;;;;2603085;54;20038;31
2021/08/18 08:16:10;;;;;;;5.15;3.00;;;21.90;99.90;;;;;;2602981;54;20036;31
2021/08/18 08:18:44;;;;;;;4.53;2.70;;;21.70;99.90;;;;;;2603363;47;20121;31
2021/08/18 08:21:15;;;;;;;7.65;2.50;;;21.50;99.90;;;;;;2603303;47;20951;31
2021/08/18 08:23:46;;;;;;;6.23;3.17;;;21.30;99.90;;;;;;2603259;47;20054;31
2021/08/18 08:26:20;;;;;;;5.40;2.25;;;21.10;99.90;;;;;;2603520;47;20030;31
2021/08/18 08:28:51;;;;;;;4.65;2.50;;;21.20;99.90;;;;;;2603206;47;20053;31
2021/08/18 08:31:22;;;;;;;4.90;2.13;;;21.20;99.90;;;;;;2603101;47;20955;31
2021/08/18 08:33:54;;;;;;;4.57;3.08;;;21.10;99.90;;;;;;2603334;47;20921;31
2021/08/18 08:36:25;;;;;;;4.70;2.47;;;21.10;99.90;;;;;;2602788;47;20046;31
2021/08/18 08:38:56;;;;;;;3.75;2.25;;;21.00;99.90;;;;;;2603231;47;20969;31
2021/08/18 08:41:27;;;;;;;3.83;2.05;;;20.80;99.90;;;;;;2603305;47;20030;31
2021/08/18 08:43:58;;;;;;;4.63;2.03;;;20.70;99.90;;;;;;2602895;54;19993;31
2021/08/18 08:46:29;;;;;;;3.70;2.13;;;20.60;99.90;;;;;;2603119;47;20896;31
2021/08/18 08:49:00;;;;;;;5.78;2.10;;;20.50;99.90;;;;;;2603403;47;20927;31
2021/08/18 08:51:31;;;;;;;5.07;2.43;;;20.40;99.90;;;;;;2603992;46;20089;31
2021/08/18 08:54:02;;;;;;;3.10;1.98;;;20.40;99.90;;;;;;2604033;46;20597;31
2021/08/18 08:56:33;;;;;;;9.05;2.10;;;20.30;99.90;;;;;;2604268;46;20092;31
2021/08/18 08:59:04;;;;;;;8.00;2.03;;;20.20;99.90;;;;;;2604062;46;20019;31
2021/08/18 09:01:59;;;;;;;2.00;1.30;;;20.30;99.90;;;;;;2604049;46;20030;31
2021/08/18 09:04:38;;;;;;;3.57;1.50;;;20.20;99.90;;;;;;2603661;54;20033;31
2021/08/18 09:07:11;;;;;;;4.75;1.70;;;20.30;99.90;;;;;;2603765;54;20473;31
2021/08/18 09:09:49;;;;;;;2.65;1.45;;;20.30;99.90;;;;;;2604088;46;20099;31
2021/08/18 09:12:26;;;;;;;4.25;1.40;;;20.30;99.90;;;;;;2604142;46;20890;31
2021/08/18 09:14:57;;;;;;;6.00;1.60;;;20.40;99.90;;;;;;2603540;54;20945;31
2021/08/18 09:17:30;;;;;;;5.80;1.60;;;20.50;99.90;;;;;;2603878;46;20086;31
2021/08/18 09:20:07;;;;;;;5.07;1.50;;;20.50;99.90;;;;;;2604449;39;20050;31
2021/08/18 09:22:48;;;;;;;6.10;1.70;;;20.50;99.90;;;;;;2603824;46;20482;31
2021/08/18 09:25:22;;;;;;;2.90;2.35;;;20.50;99.90;;;;;;2702301;39;20382;31
2021/08/18 09:28:00;;;;;;;2.60;1.57;;;20.60;99.90;;;;;;2603804;46;20050;31
2021/08/18 09:30:34;;;;;;;2.58;1.33;;;20.70;99.90;;;;;;2603734;54;20871;31
2021/08/18 09:33:11;;;;;;;2.22;1.23;;;20.70;99.90;;;;;;2603894;46;20064;31
2021/08/18 09:35:43;;;;;;;2.70;1.30;;;20.90;99.90;;;;;;2603926;46;20912;31
2021/08/18 09:38:14;;;;;;;1.55;1.10;;;21.10;99.90;;;;;;2603972;46;20049;31
2021/08/18 09:40:47;;;;;;;3.03;1.25;;;21.30;99.90;;;;;;2603618;54;20054;31
2021/08/18 09:43:21;;;;;;;11.80;1.75;;;21.50;99.90;;;;;;2604066;46;20038;31
2021/08/18 09:46:02;;;;;;;3.40;1.35;;;21.50;99.90;;;;;;2603890;46;20038;31
2021/08/18 09:48:38;;;;;;;2.93;1.50;;;21.60;99.90;;;;;;2603702;46;20040;31
2021/08/18 09:51:10;;;;;;;4.40;1.20;;;21.40;99.80;;;;;;2603774;46;20030;31
2021/08/18 09:53:42;;;;;;;3.42;1.20;;;21.30;99.90;;;;;;2603932;46;20058;31
2021/08/18 09:56:16;;;;;;;4.00;1.00;;;21.40;99.90;;;;;;2603811;46;20026;31
2021/08/18 09:58:52;;;;;;;2.00;1.10;;;21.60;99.90;;;;;;2603997;46;20038;31
2021/08/18 10:01:22;;;;;;;4.50;1.33;;;21.80;99.90;;;;;;2603595;54;20100;31
2021/08/18 10:03:54;;;;;;;3.93;1.27;;;21.90;99.90;;;;;;2604001;46;20050;31
2021/08/18 10:06:25;;;;;;;8.13;1.10;;;21.80;99.90;;;;;;2603864;46;20879;31
2021/08/18 10:08:56;;;;;;;2.42;1.20;;;21.80;99.90;;;;;;2702449;39;20538;31
2021/08/18 10:11:27;;;;;;;5.15;1.20;;;21.70;99.90;;;;;;2603999;46;20027;31
2021/08/18 10:13:59;;;;;;;5.40;1.90;;;21.60;99.90;;;;;;2603661;46;20034;31
2021/08/18 10:16:31;;;;;;;3.40;1.40;;;21.40;99.90;;;;;;2603712;47;20027;31
2021/08/18 10:19:06;;;;;;;9.75;2.45;;;21.20;99.90;;;;;;2603949;46;20915;31
2021/08/18 10:21:36;;;;;;;4.35;1.75;;;21.20;99.90;;;;;;2603737;46;20022;31
2021/08/18 10:24:08;;;;;;;5.35;2.15;;;21.30;99.90;;;;;;2603512;46;20077;31
2021/08/18 10:26:39;;;;;;;2.10;1.10;;;21.30;99.90;;;;;;2603734;46;20089;31
2021/08/18 10:29:22;;;;;;;2.30;1.30;;;21.30;99.90;;;;;;2773377;31;20410;31
2021/08/18 10:31:52;;;;;;;1.55;1.15;;;21.40;99.80;;;;;;2603747;46;20879;31
2021/08/18 10:34:26;;;;;;;3.58;1.17;;;21.40;99.90;;;;;;2603493;54;20879;31
2021/08/18 10:37:01;;;;;;;2.40;1.00;;;21.40;99.50;;;;;;2603812;46;20052;31
2021/08/18 10:39:37;;;;;;;1.80;1.50;;;21.50;99.90;;;;;;2603728;46;20026;31
2021/08/18 10:42:10;;;;;;;4.55;3.00;;;21.70;99.90;;;;;;2604037;46;20026;31
2021/08/18 10:44:50;;;;;;;4.22;3.40;;;21.90;99.90;;;;;;2603280;54;20097;31
2021/08/18 10:47:26;;;;;;;3.57;2.30;;;22.00;99.90;;;;;;2603765;46;20597;31
2021/08/18 10:49:58;;;;;;;3.45;2.20;;;21.90;99.90;;;;;;2603716;46;20022;31
2021/08/18 10:52:29;;;;;;;6.60;2.67;;;21.90;99.90;;;;;;2603543;46;20461;31
2021/08/18 10:55:07;;;;;;;2.20;1.50;;;21.90;99.90;;;;;;2603877;46;20034;31
2021/08/18 10:57:47;;;;;;;11.75;3.22;;;21.90;99.90;;;;;;2603405;54;20908;31
2021/08/18 11:00:20;;;;;;;3.40;1.55;;;21.90;99.90;;;;;;2603797;46;20032;31
2021/08/18 11:03:03;;;;;;;1.80;1.17;;;21.90;99.10;;;;;;2603146;46;20925;31
2021/08/18 11:05:37;;;;;;;3.38;1.92;;;21.90;99.60;;;;;;2603276;54;20466;31
2021/08/18 11:08:20;;;;;;;2.65;1.65;;;21.90;99.90;;;;;;2603306;54;20086;31
2021/08/18 11:10:52;;;;;;;2.72;1.90;;;21.80;99.90;;;;;;2702393;39;20542;31
2021/08/18 11:13:36;;;;;;;1.85;1.13;;;21.80;99.90;;;;;;2603411;47;20845;31
2021/08/18 11:16:17;;;;;;;4.10;1.30;;;21.70;99.70;;;;;;2603576;46;20608;31
2021/08/18 11:19:02;;;;;;;4.68;2.10;;;21.70;99.70;;;;;;2603556;46;20026;31
2021/08/18 11:21:35;;;;;;;4.45;2.70;;;21.70;99.90;;;;;;2603335;54;20896;31
2021/08/18 11:24:07;;;;;;;3.53;1.50;;;21.70;99.80;;;;;;2603390;46;20902;31
2021/08/18 11:26:40;;;;;;;4.53;2.70;;;21.70;99.60;;;;;;2603484;46;20077;31
2021/08/18 11:29:20;;;;;;;;;;;21.70;99.90;;;;;;2603645;47;20891;31
2021/08/18 11:31:53;;;;;;;3.20;1.45;;;21.70;99.90;;;;;;2603838;46;22162;31
2021/08/18 11:34:27;;;;;;;1.77;0.77;;;21.70;99.20;;;;;;2603492;47;20079;31
2021/08/18 11:37:08;;;;;;;1.07;0.60;;;21.80;99.90;;;;;;2603486;46;20034;31
2021/08/18 11:39:44;;;;;;;1.88;0.60;;;21.80;99.90;;;;;;2610373;31;21009;31
2021/08/18 11:42:19;;;;;;;3.22;0.60;;;22.00;99.90;;;;;;2603549;46;20022;31
2021/08/18 11:45:01;;;;;;;1.50;0.32;;;22.10;99.60;;;;;;2603112;54;20061;31
2021/08/18 11:47:33;;;;;;;1.38;0.82;;;22.10;99.50;;;;;;2701667;39;20520;31
2021/08/18 11:50:04;;;;;;;2.13;1.13;;;22.10;99.30;;;;;;2603143;54;20037;31
2021/08/18 11:52:35;;;;;;;5.15;2.75;;;22.00;98.80;;;;;;2603429;46;20482;31
2021/08/18 11:55:07;;;;;;;3.43;0.60;;;21.90;99.30;;;;;;2603296;47;20053;31
2021/08/18 11:57:37;;;;;;;3.45;0.70;;;21.90;99.20;;;;;;2603485;46;20034;31
2021/08/18 12:00:09;;;;;;;6.65;4.40;;;21.90;99.10;;;;;;2603348;47;20909;31
2021/08/18 12:02:40;;;;;;;5.10;2.65;;;21.90;99.10;;;;;;2603458;47;20057;31
2021/08/18 12:05:11;;;;;;;2.92;2.03;;;21.80;99.10;;;;;;2603239;47;20030;31
2021/08/18 12:07:42;;;;;;;3.15;1.15;;;21.80;99.30;;;;;;2602577;47;20034;31
2021/08/18 12:10:18;;;;;;;2.65;0.80;;;21.80;99.00;;;;;;2603063;54;20030;31
2021/08/18 12:13:02;;;;;;;;;;;21.70;99.00;;;;;;2702259;39;20400;31
2021/08/18 12:15:34;;;;;;;5.18;2.33;;;21.80;99.30;;;;;;2603444;47;20801;31
2021/08/18 12:18:06;;;;;;;3.10;1.10;;;21.70;99.40;;;;;;2603616;47;20928;31
2021/08/18 12:20:37;;;;;;;2.38;0.95;;;21.70;99.50;;;;;;2603448;47;20033;31
2021/08/18 12:23:08;;;;;;;3.00;0.85;;;21.80;99.90;;;;;;2603242;47;19943;31
2021/08/18 12:25:40;;;;;;;4.88;2.13;;;21.80;99.90;;;;;;2604218;47;20849;31
2021/08/18 12:28:18;;;;;;;5.30;1.85;;;21.90;99.60;;;;;;2604421;46;20037;31
2021/08/18 12:30:59;;;;;;;2.35;1.33;;;22.00;99.30;;;;;;2603852;54;20892;31
2021/08/18 12:33:31;;;;;;;2.93;1.10;;;22.00;99.30;;;;;;2604278;46;20087;31
2021/08/18 12:36:06;;;;;;;2.10;1.33;;;22.00;99.70;;;;;;2603797;54;20941;31
2021/08/18 12:38:36;;;;;;;5.00;1.30;;;22.00;99.70;;;;;;2604264;46;20035;31
2021/08/18 12:41:08;;;;;;;2.00;0.70;;;22.10;99.90;;;;;;2604124;46;20065;31
2021/08/18 12:43:38;;;;;;;1.30;0.50;;;22.20;99.50;;;;;;2604179;46;20884;31
2021/08/18 12:46:22;;;;;;;4.10;1.10;;;22.30;99.30;;;;;;2604019;46;20035;31
2021/08/18 12:48:52;;;;;;;1.20;0.57;;;22.50;99.50;;;;;;2604089;46;20411;31
2021/08/18 12:51:23;;;;;;;1.25;0.80;;;22.60;99.40;;;;;;2604180;46;20864;31
2021/08/18 12:53:54;;;;;;;2.30;0.80;;;22.70;98.90;;;;;;2604015;46;20093;31
2021/08/18 12:56:25;;;;;;;2.35;0.90;;;22.70;98.80;;;;;;2604151;46;20982;31
2021/08/18 12:58:56;;;;;;;1.20;0.70;;;22.80;99.20;;;;;;2604343;46;20022;31
2021/08/18 13:01:27;;;;;;;2.85;0.70;;;22.80;98.80;;;;;;2604337;46;20119;31
2021/08/18 13:03:59;;;;;;;3.55;0.82;;;22.80;98.40;;;;;;2604061;46;20411;31
2021/08/18 13:06:30;;;;;;;3.17;0.73;;;22.80;98.40;;;;;;2702526;39;20401;31
2021/08/18 13:09:02;;;;;;;1.90;0.60;;;22.80;98.30;;;;;;2603836;54;20082;31
2021/08/18 13:11:33;;;;;;;2.72;0.60;;;22.80;98.80;;;;;;2702677;39;20398;31
2021/08/18 13:14:04;;;;;;;1.08;0.50;;;22.80;98.40;;;;;;2702403;39;20521;31
2021/08/18 13:16:35;;;;;;;1.30;0.75;;;22.80;98.20;;;;;;2604115;46;20918;31
2021/08/18 13:19:06;;;;;;;2.45;0.70;;;22.80;98.00;;;;;;2603860;46;20026;31
2021/08/18 13:21:37;;;;;;;1.38;0.55;;;22.80;98.50;;;;;;2604083;46;20915;31
2021/08/18 13:24:11;;;;;;;1.83;1.00;;;22.80;98.80;;;;;;2604140;46;19936;31